createdAt,value
2018-03-25T03:32:39.503Z,28.38
2018-03-25T03:35:07.140Z,27.30
2018-03-25T03:37:34.803Z,27.58
2018-03-25T03:40:02.443Z,26.75
2018-03-25T03:42:30.115Z,25.15
2018-03-25T03:44:57.805Z,25.30
2018-03-25T03:47:25.440Z,27.13
2018-03-25T03:49:53.072Z,25.37
2018-03-25T03:52:21.497Z,27.70
2018-03-25T03:54:49.133Z,27.73
2018-03-25T03:57:16.911Z,27.23
2018-03-25T03:59:44.549Z,25.50
2018-03-25T04:02:12.196Z,25.77
2018-03-25T04:04:39.863Z,27.98
2018-03-25T04:07:07.512Z,25.33
2018-03-25T04:09:35.960Z,25.17
2018-03-25T04:12:03.602Z,26.98
2018-03-25T04:14:31.241Z,25.98
2018-03-25T04:16:58.897Z,28.30
2018-03-25T04:19:26.562Z,27.10
2018-03-25T04:21:54.220Z,26.17
2018-03-25T04:24:21.852Z,25.60
2018-03-25T04:26:50.292Z,24.45
2018-03-25T04:29:17.932Z,27.58
2018-03-25T04:31:45.567Z,26.15
2018-03-25T04:34:13.240Z,26.10
2018-03-25T04:36:40.876Z,27.00
2018-03-25T04:39:08.513Z,25.90
2018-03-25T04:41:36.177Z,26.23
2018-03-25T04:44:04.576Z,27.10
2018-03-25T04:46:32.267Z,27.52
2018-03-25T04:48:59.897Z,28.67
2018-03-25T04:51:27.537Z,26.90
2018-03-25T04:53:55.979Z,22.92
2018-03-25T04:56:23.616Z,22.60
2018-03-25T04:58:51.252Z,24.45
2018-03-25T05:01:19.675Z,25.20
2018-03-25T05:03:47.313Z,24.20
2018-03-25T05:06:14.993Z,24.70
2018-03-25T05:08:42.633Z,24.45
2018-03-25T05:11:10.276Z,26.37
2018-03-25T05:13:37.956Z,25.00
2018-03-25T05:16:05.592Z,24.12
2018-03-25T05:18:33.232Z,26.73
2018-03-25T05:21:00.904Z,27.02
2018-03-25T05:23:29.317Z,25.27
2018-03-25T05:25:56.952Z,26.42
2018-03-25T05:28:24.608Z,26.10
2018-03-25T05:30:53.013Z,26.58
2018-03-25T05:33:20.681Z,28.38
2018-03-25T05:35:48.317Z,25.48
2018-03-25T05:38:15.952Z,25.52
2018-03-25T05:40:44.381Z,26.27
2018-03-25T05:43:12.013Z,27.70
2018-03-25T05:45:39.691Z,25.00
2018-03-25T05:48:07.329Z,26.65
2018-03-25T05:50:34.970Z,25.00
2018-03-25T05:53:03.426Z,26.98
2018-03-25T05:55:31.060Z,25.90
2018-03-25T05:57:58.692Z,26.30
2018-03-25T06:00:27.396Z,25.08
2018-03-25T06:02:55.128Z,23.42
2018-03-25T06:05:23.535Z,25.65
2018-03-25T06:07:51.219Z,24.75
2018-03-25T06:10:18.854Z,24.85
2018-03-25T06:12:46.496Z,28.42
2018-03-25T06:15:14.156Z,27.20
2018-03-25T06:17:41.792Z,25.65
2018-03-25T06:20:09.442Z,27.45
2018-03-25T06:22:37.100Z,27.87
2018-03-25T06:25:04.742Z,28.67
2018-03-25T06:27:32.424Z,30.20
2018-03-25T06:30:00.093Z,30.30
2018-03-25T06:32:27.732Z,27.65
2018-03-25T06:34:55.420Z,30.10
2018-03-25T06:37:23.829Z,30.90
2018-03-25T06:39:51.469Z,28.45
2018-03-25T06:42:19.892Z,28.60
2018-03-25T06:44:47.524Z,31.30
2018-03-25T06:47:15.205Z,32.25
2018-03-25T06:49:42.840Z,34.00
2018-03-25T06:52:10.472Z,34.47
2018-03-25T06:54:38.140Z,35.35
2018-03-25T06:57:06.540Z,33.92
2018-03-25T06:59:34.404Z,32.75
2018-03-25T07:02:01.976Z,32.97
2018-03-25T07:04:29.561Z,30.80
2018-03-25T07:06:57.257Z,31.45
2018-03-25T07:09:24.896Z,31.73
2018-03-25T07:11:52.526Z,31.67
2018-03-25T07:14:20.193Z,31.92
2018-03-25T07:16:47.821Z,31.73
2018-03-25T07:19:15.452Z,32.50
2018-03-25T07:21:43.108Z,32.15
2018-03-25T07:24:10.772Z,31.15
2018-03-25T07:26:38.410Z,31.05
2018-03-25T07:29:07.608Z,33.15
2018-03-25T07:31:35.241Z,34.38
2018-03-25T07:34:02.875Z,30.55
2018-03-25T07:36:30.532Z,30.12
2018-03-25T07:38:58.963Z,27.15
2018-03-25T07:41:26.592Z,28.20
2018-03-25T07:43:54.224Z,29.77
2018-03-25T07:46:22.643Z,27.35
2018-03-25T07:48:50.313Z,29.65
2018-03-25T07:51:17.953Z,26.60
2018-03-25T07:53:45.587Z,31.33
2018-03-25T07:56:14.046Z,28.42
2018-03-25T07:58:41.684Z,27.33
2018-03-25T08:01:09.322Z,27.23
2018-03-25T08:03:36.996Z,27.45
2018-03-25T08:06:04.622Z,28.50
2018-03-25T08:08:32.257Z,26.42
2018-03-25T08:11:00.708Z,26.85
2018-03-25T08:13:28.338Z,24.95
2018-03-25T08:15:55.977Z,26.02
2018-03-25T08:18:23.652Z,25.33
2018-03-25T08:20:51.361Z,25.10
2018-03-25T08:23:18.993Z,25.75
2018-03-25T08:25:46.669Z,25.15
2018-03-25T08:28:14.303Z,26.48
2018-03-25T08:30:41.932Z,25.92
2018-03-25T08:33:10.376Z,27.48
2018-03-25T08:35:38.015Z,25.40
2018-03-25T08:38:05.666Z,25.00
2018-03-25T08:40:33.389Z,22.55
2018-03-25T08:43:01.818Z,24.85
2018-03-25T08:45:29.452Z,24.02
2018-03-25T08:47:57.125Z,25.35
2018-03-25T08:50:24.780Z,28.00
2018-03-25T08:52:52.407Z,24.45
2018-03-25T08:55:20.865Z,24.70
2018-03-25T08:57:48.504Z,25.02
2018-03-25T09:00:16.140Z,25.77
2018-03-25T09:02:43.816Z,24.65
2018-03-25T09:05:11.449Z,23.98
2018-03-25T09:07:39.081Z,25.67
2018-03-25T09:10:07.537Z,24.27
2018-03-25T09:12:35.176Z,23.50
2018-03-25T09:15:02.855Z,23.95
2018-03-25T09:17:30.536Z,25.33
2018-03-25T09:19:58.933Z,25.90
2018-03-25T09:22:27.340Z,25.75
2018-03-25T09:24:54.992Z,25.37
2018-03-25T09:27:22.621Z,25.08
2018-03-25T09:29:51.012Z,24.12
2018-03-25T09:32:18.694Z,26.70
2018-03-25T09:34:46.327Z,24.50
2018-03-25T09:37:14.730Z,23.38
2018-03-25T09:39:42.392Z,23.67
2018-03-25T09:42:10.020Z,25.62
2018-03-25T09:44:38.449Z,24.73
2018-03-25T09:47:06.080Z,25.65
2018-03-25T09:49:33.707Z,23.77
2018-03-25T09:52:02.162Z,24.75
2018-03-25T09:54:30.594Z,24.87
2018-03-25T09:56:58.228Z,24.73
2018-03-25T09:59:26.660Z,24.23
2018-03-25T10:05:01.841Z,24.00
2018-03-25T10:07:29.472Z,22.90
2018-03-25T10:09:57.104Z,24.87
2018-03-25T10:12:24.780Z,25.23
2018-03-25T10:14:52.408Z,22.85
2018-03-25T10:17:21.984Z,23.10
2018-03-25T10:19:49.673Z,24.30
2018-03-25T10:22:18.117Z,23.70
2018-03-25T10:24:45.749Z,24.23
2018-03-25T10:27:13.417Z,23.23
2018-03-25T10:29:41.049Z,23.25
2018-03-25T10:32:08.687Z,23.23
2018-03-25T10:34:37.108Z,25.23
2018-03-25T10:37:04.737Z,23.15
2018-03-25T10:39:33.136Z,23.98
2018-03-25T10:42:00.816Z,23.00
2018-03-25T10:44:28.452Z,25.75
2018-03-25T10:46:56.091Z,32.67
2018-03-25T10:49:24.627Z,24.10
2018-03-25T10:51:52.264Z,24.15
2018-03-25T10:54:19.899Z,22.52
2018-03-25T10:56:48.321Z,24.30
2018-03-25T10:59:15.953Z,23.35
2018-03-25T11:01:43.625Z,21.95
2018-03-25T11:04:11.264Z,26.92
2018-03-25T11:06:38.893Z,23.65
2018-03-25T11:09:06.564Z,24.65
2018-03-25T11:11:34.964Z,25.02
2018-03-25T11:14:02.591Z,25.10
2018-03-25T11:16:30.277Z,24.77
2018-03-25T11:18:58.676Z,23.08
2018-03-25T11:21:26.304Z,25.75
2018-03-25T11:23:54.745Z,23.60
2018-03-25T11:26:22.388Z,22.55
2018-03-25T11:28:50.024Z,22.50
2018-03-25T11:31:17.696Z,22.00
2018-03-25T11:33:45.341Z,22.23
2018-03-25T11:36:12.972Z,21.15
2018-03-25T11:38:40.650Z,23.05
2018-03-25T11:41:10.916Z,24.15
2018-03-25T11:43:38.550Z,25.55
2018-03-25T11:46:06.232Z,24.15
2018-03-25T11:48:33.866Z,24.65
2018-03-25T11:51:01.505Z,25.30
2018-03-25T11:53:30.030Z,24.67
2018-03-25T11:55:57.665Z,24.45
2018-03-25T11:58:25.301Z,23.45
2018-03-25T12:00:53.745Z,23.38
2018-03-25T12:03:21.432Z,23.55
2018-03-25T12:05:49.077Z,23.83
2018-03-25T12:08:16.752Z,24.25
2018-03-25T12:10:44.396Z,24.10
2018-03-25T12:13:12.028Z,23.75
2018-03-25T12:15:39.701Z,24.02
2018-03-25T12:18:07.341Z,24.67
2018-03-25T12:20:34.980Z,22.83
2018-03-25T12:23:03.424Z,23.05
2018-03-25T12:25:31.064Z,23.60
2018-03-25T12:27:58.700Z,25.33
2018-03-25T12:30:26.377Z,22.70
2018-03-25T12:32:54.008Z,23.33
2018-03-25T12:35:21.641Z,23.23
2018-03-25T12:37:49.392Z,22.25
2018-03-25T12:40:17.046Z,22.87
2018-03-25T12:42:44.677Z,23.27
2018-03-25T12:45:12.338Z,22.55
2018-03-25T12:47:39.972Z,22.90
2018-03-25T12:50:07.613Z,23.10
2018-03-25T12:52:36.032Z,23.15
2018-03-25T12:55:03.712Z,22.62
2018-03-25T12:57:31.388Z,23.67
2018-03-25T12:59:59.026Z,22.30
2018-03-25T13:02:26.662Z,25.70
2018-03-25T13:04:54.337Z,23.90
2018-03-25T13:07:21.978Z,24.70
2018-03-25T13:09:49.608Z,24.42
2018-03-25T13:12:18.059Z,23.62
2018-03-25T13:14:46.498Z,22.70
2018-03-25T13:17:14.138Z,23.27
2018-03-25T13:19:42.581Z,24.37
2018-03-25T13:22:10.253Z,23.73
2018-03-25T13:24:37.892Z,25.23
2018-03-25T13:27:05.544Z,23.00
2018-03-25T13:29:33.176Z,22.65
2018-03-25T13:32:00.858Z,24.58
2018-03-25T13:34:28.549Z,24.27
2018-03-25T13:36:56.201Z,23.38
2018-03-25T13:39:24.633Z,23.60
2018-03-25T13:41:52.308Z,25.95
2018-03-25T13:44:19.936Z,24.98
2018-03-25T13:46:48.327Z,23.50
2018-03-25T13:49:16.001Z,23.45
2018-03-25T13:51:43.637Z,24.67
2018-03-25T13:54:12.029Z,23.77
2018-03-25T13:56:39.693Z,25.58
2018-03-25T13:59:07.322Z,23.67
2018-03-25T14:01:34.954Z,24.70
2018-03-25T14:04:02.628Z,24.42
2018-03-25T14:06:30.268Z,25.73
2018-03-25T14:08:57.973Z,25.52
2018-03-25T14:11:26.392Z,25.60
2018-03-25T14:13:54.023Z,27.90
2018-03-25T14:16:21.708Z,24.52
2018-03-25T14:18:49.331Z,25.70
2018-03-25T14:21:17.733Z,23.80
2018-03-25T14:23:45.412Z,27.20
2018-03-25T14:26:13.044Z,27.37
2018-03-25T14:28:40.677Z,23.95
2018-03-25T14:31:08.343Z,25.37
2018-03-25T14:33:35.971Z,26.90
2018-03-25T14:36:03.600Z,26.00
2018-03-25T14:38:31.276Z,28.15
2018-03-25T14:40:58.904Z,28.12
2018-03-25T14:43:26.545Z,27.17
2018-03-25T14:45:54.213Z,26.85
2018-03-25T14:48:22.604Z,27.87
2018-03-25T14:50:50.253Z,28.05
2018-03-25T14:53:18.676Z,27.77
2018-03-25T14:55:46.304Z,24.67
2018-03-25T14:58:13.948Z,26.55
2018-03-25T15:00:42.384Z,27.20
2018-03-25T15:03:10.016Z,25.95
2018-03-25T15:05:37.649Z,27.08
2018-03-25T15:08:06.113Z,26.33
2018-03-25T15:10:33.761Z,26.73
2018-03-25T15:13:01.388Z,25.92
2018-03-25T15:15:29.040Z,25.55
2018-03-25T15:17:56.673Z,25.75
2018-03-25T15:20:25.134Z,27.80
2018-03-25T15:22:52.764Z,25.05
2018-03-25T15:25:20.394Z,26.40
2018-03-25T15:27:48.064Z,26.33
2018-03-25T15:30:15.693Z,27.08
2018-03-25T15:32:44.100Z,26.30
2018-03-25T15:35:11.757Z,28.33
2018-03-25T15:37:39.388Z,28.30
2018-03-25T15:40:07.785Z,26.73
2018-03-25T15:42:35.464Z,24.30
2018-03-25T15:45:03.091Z,26.17
2018-03-25T15:47:31.484Z,26.60
2018-03-25T15:49:59.135Z,26.67
2018-03-25T15:52:26.804Z,27.60
2018-03-25T15:54:54.499Z,26.90
2018-03-25T15:57:22.128Z,26.10
2018-03-25T15:59:49.809Z,25.60
2018-03-25T16:02:17.470Z,27.25
2018-03-25T16:04:45.092Z,26.45
2018-03-25T16:07:13.533Z,27.87
2018-03-25T16:09:41.257Z,26.45
2018-03-25T16:12:08.837Z,27.27
2018-03-25T16:14:37.288Z,26.98
2018-03-25T16:17:04.935Z,26.15
2018-03-25T16:19:33.337Z,27.25
2018-03-25T16:22:01.068Z,25.60
2018-03-25T16:24:29.452Z,27.02
2018-03-25T16:26:57.850Z,25.83
2018-03-25T16:29:25.501Z,24.67
2018-03-25T16:31:53.132Z,26.45
2018-03-25T16:34:21.533Z,26.80
2018-03-25T16:36:49.212Z,24.50
2018-03-25T16:39:16.844Z,26.37
2018-03-25T16:41:45.256Z,25.48
2018-03-25T16:44:12.944Z,26.48
2018-03-25T16:46:40.572Z,25.65
2018-03-25T16:49:08.199Z,27.05
2018-03-25T16:51:35.906Z,27.20
2018-03-25T16:54:04.305Z,26.30
2018-03-25T16:56:31.936Z,27.55
2018-03-25T16:58:59.612Z,27.10
2018-03-25T17:01:27.245Z,28.87
2018-03-25T17:03:54.877Z,28.40
2018-03-25T17:06:23.321Z,29.33
2018-03-25T17:08:50.948Z,27.05
2018-03-25T17:11:18.576Z,27.05
2018-03-25T17:13:46.997Z,28.75
2018-03-25T17:16:14.632Z,28.38
2018-03-25T17:18:42.305Z,28.80
2018-03-25T17:21:09.933Z,30.42
2018-03-25T17:23:38.329Z,28.80
2018-03-25T17:26:05.988Z,28.77
2018-03-25T17:28:33.616Z,31.42
2018-03-25T17:31:01.248Z,30.75
2018-03-25T17:33:28.916Z,30.17
2018-03-25T17:35:56.544Z,28.20
2018-03-25T17:38:24.171Z,29.17
2018-03-25T17:40:52.604Z,29.17
2018-03-25T17:43:20.235Z,29.08
2018-03-25T17:45:47.880Z,31.50
2018-03-25T17:48:15.560Z,29.55
2018-03-25T17:50:43.194Z,27.77
2018-03-25T17:53:11.592Z,29.80
2018-03-25T17:55:39.268Z,29.02
2018-03-25T17:58:06.981Z,27.90
2018-03-25T18:00:34.653Z,30.08
2018-03-25T18:03:03.049Z,30.67
2018-03-25T18:05:30.681Z,31.30
2018-03-25T18:07:58.333Z,30.80
2018-03-25T18:10:25.964Z,31.98
2018-03-25T18:12:53.592Z,29.08
2018-03-25T18:15:21.269Z,30.88
2018-03-25T18:17:48.900Z,31.83
2018-03-25T18:20:16.548Z,32.25
2018-03-25T18:22:44.984Z,29.25
2018-03-25T18:25:12.616Z,28.45
2018-03-25T18:27:40.252Z,29.48
2018-03-25T18:30:08.684Z,30.15
2018-03-25T18:32:36.312Z,30.10
2018-03-25T18:35:03.981Z,30.52
2018-03-25T18:37:31.672Z,30.08
2018-03-25T18:39:59.305Z,30.98
2018-03-25T18:42:26.937Z,31.73
2018-03-25T18:44:55.376Z,28.58
2018-03-25T18:47:23.004Z,29.15
2018-03-25T18:49:50.646Z,30.55
2018-03-25T18:52:18.320Z,28.77
2018-03-25T18:54:45.944Z,31.10
2018-03-25T18:57:14.348Z,29.70
2018-03-25T18:59:42.021Z,30.67
2018-03-25T19:02:09.704Z,32.30
2018-03-25T19:04:37.340Z,28.87
2018-03-25T19:07:05.012Z,32.83
2018-03-25T19:09:32.641Z,33.40
2018-03-25T19:12:00.277Z,29.20
2018-03-25T19:14:27.965Z,30.62
2018-03-25T19:16:55.592Z,31.50
2018-03-25T19:19:23.292Z,32.67
2018-03-25T19:21:50.949Z,31.12
2018-03-25T19:24:18.580Z,32.17
2018-03-25T19:26:46.981Z,29.90
2018-03-25T19:29:15.368Z,30.25
2018-03-25T19:31:44.378Z,30.00
2018-03-25T19:34:12.030Z,28.58
2018-03-25T19:36:39.692Z,30.10
2018-03-25T19:39:07.964Z,28.98
2018-03-25T19:41:35.636Z,35.35
2018-03-25T19:44:03.269Z,34.13
2018-03-25T19:46:30.909Z,32.33
2018-03-25T19:48:59.356Z,29.42
2018-03-25T19:51:26.989Z,30.95
2018-03-25T19:53:54.620Z,30.25
2018-03-25T19:56:23.064Z,30.80
2018-03-25T19:58:50.705Z,31.83
2018-03-25T20:01:18.338Z,31.30
2018-03-25T20:03:45.994Z,31.42
2018-03-25T20:06:13.629Z,32.20
2018-03-25T20:08:42.028Z,30.33
2018-03-25T20:11:09.729Z,31.92
2018-03-25T20:13:37.366Z,32.38
2018-03-25T20:16:04.992Z,35.22
2018-03-25T20:18:33.413Z,32.33
2018-03-25T20:21:01.049Z,32.90
2018-03-25T20:23:28.681Z,34.00
2018-03-25T20:25:56.352Z,32.53
2018-03-25T20:28:24.751Z,33.28
2018-03-25T20:30:52.392Z,36.85
2018-03-25T20:33:20.097Z,37.55
2018-03-25T20:35:47.732Z,38.38
2018-03-25T20:38:16.129Z,32.85
2018-03-25T20:40:43.808Z,32.20
2018-03-25T20:43:11.440Z,35.42
2018-03-25T20:45:39.072Z,34.05
2018-03-25T20:48:07.514Z,34.08
2018-03-25T20:50:35.144Z,34.45
2018-03-25T20:53:02.776Z,35.25
2018-03-25T20:55:31.192Z,36.20
2018-03-25T20:57:58.836Z,37.65
2018-03-25T21:00:26.481Z,34.70
2018-03-25T21:02:54.228Z,32.70
2018-03-25T21:05:22.624Z,35.85
2018-03-25T21:07:50.257Z,35.85
2018-03-25T21:10:17.929Z,34.28
2018-03-25T21:12:46.324Z,34.22
2018-03-25T21:15:13.956Z,37.10
2018-03-25T21:17:41.624Z,34.08
2018-03-25T21:20:10.017Z,35.22
2018-03-25T21:22:37.649Z,39.25
2018-03-25T21:25:05.320Z,37.53
2018-03-25T21:27:33.716Z,39.97
2018-03-25T21:30:01.348Z,36.08
2018-03-25T21:32:29.026Z,39.08
2018-03-25T21:34:57.421Z,40.22
2018-03-25T21:37:25.053Z,45.78
2018-03-25T21:39:53.512Z,50.83
2018-03-25T21:42:21.158Z,48.87
2018-03-25T21:44:48.791Z,42.90
2018-03-25T21:47:16.449Z,41.65
2018-03-25T21:49:44.080Z,40.88
2018-03-25T21:52:12.472Z,41.60
2018-03-25T21:54:40.124Z,40.50
2018-03-25T21:57:08.520Z,39.50
2018-03-25T21:59:36.165Z,39.97
2018-03-25T22:02:03.827Z,44.20
2018-03-25T22:04:32.220Z,42.08
2018-03-25T22:06:59.992Z,43.30
2018-03-25T22:09:27.628Z,46.75
2018-03-25T22:11:55.261Z,43.22
2018-03-25T22:14:22.943Z,41.63
2018-03-25T22:16:51.341Z,44.45
2018-03-25T22:19:18.973Z,42.95
2018-03-25T22:21:47.396Z,44.55
2018-03-25T22:24:15.028Z,44.10
2018-03-25T22:26:42.706Z,41.30
2018-03-25T22:29:10.339Z,41.47
